Eddington, Pennsylvania
Current Conditions -  °F | °C
As of 1:54 PM on Friday 28 Nov 2014 (Local Time) from KPNE Reporting Station
Few Clouds Few Clouds  
Wind Chill: 29°   Ceiling: Unl
Heat Index: 38°   Visibility: 10mi
Dew Point: 13°   Wind: 17mph
Humidity: 36%   Direction: 310°NW
Pressure: 30.22"   Gusts: 26mph
Location:  40.1068°N, 74.9379°W
Report Text: KPNE 281854Z AUTO 31015G23KT 10SM FEW050 03/M11 A3022 RMK AO2 SLP235 T00331106 TSNO
Loading
Personal Weather Stations






























Interactive Weather Map New forecast layout! Learn more

10-Day Weather Forecast

Advertisements
Track Severe Weather on mobile